sensor_id;sensor_type;location;lat;lon;timestamp;P1;durP1;ratioP1;P2;durP2;ratioP2
13951;SDS011;39535;52.192;9.886;2023-05-23T00:01:00;13.23;;;12.33;;
13951;SDS011;39535;52.192;9.886;2023-05-23T00:03:26;14.00;;;12.90;;
13951;SDS011;39535;52.192;9.886;2023-05-23T00:05:55;13.30;;;12.30;;
13951;SDS011;39535;52.192;9.886;2023-05-23T00:08:23;13.80;;;12.77;;
13951;SDS011;39535;52.192;9.886;2023-05-23T00:10:49;13.77;;;12.77;;
13951;SDS011;39535;52.192;9.886;2023-05-23T00:13:16;16.03;;;14.63;;
13951;SDS011;39535;52.192;9.886;2023-05-23T00:15:42;16.40;;;15.10;;
13951;SDS011;39535;52.192;9.886;2023-05-23T00:18:10;17.10;;;15.83;;
13951;SDS011;39535;52.192;9.886;2023-05-23T00:20:37;17.07;;;15.97;;
13951;SDS011;39535;52.192;9.886;2023-05-23T00:23:05;17.03;;;15.83;;
13951;SDS011;39535;52.192;9.886;2023-05-23T00:25:31;17.83;;;16.47;;
13951;SDS011;39535;52.192;9.886;2023-05-23T00:27:59;15.83;;;14.57;;
13951;SDS011;39535;52.192;9.886;2023-05-23T00:30:26;17.80;;;16.30;;
13951;SDS011;39535;52.192;9.886;2023-05-23T00:32:53;16.33;;;15.07;;
13951;SDS011;39535;52.192;9.886;2023-05-23T00:35:21;16.63;;;15.43;;
13951;SDS011;39535;52.192;9.886;2023-05-23T00:37:48;16.70;;;15.40;;
13951;SDS011;39535;52.192;9.886;2023-05-23T00:40:16;16.57;;;15.20;;
13951;SDS011;39535;52.192;9.886;2023-05-23T00:42:42;17.77;;;16.13;;
13951;SDS011;39535;52.192;9.886;2023-05-23T00:45:09;16.87;;;15.63;;
13951;SDS011;39535;52.192;9.886;2023-05-23T00:47:37;16.43;;;15.20;;
13951;SDS011;39535;52.192;9.886;2023-05-23T00:50:05;17.53;;;16.30;;
13951;SDS011;39535;52.192;9.886;2023-05-23T00:52:34;16.77;;;15.33;;
13951;SDS011;39535;52.192;9.886;2023-05-23T00:55:01;18.37;;;16.83;;
13951;SDS011;39535;52.192;9.886;2023-05-23T00:57:27;18.07;;;16.60;;
13951;SDS011;39535;52.192;9.886;2023-05-23T00:59:54;18.53;;;17.23;;
13951;SDS011;39535;52.192;9.886;2023-05-23T01:02:21;19.93;;;18.43;;
13951;SDS011;39535;52.192;9.886;2023-05-23T01:04:48;21.67;;;19.97;;
13951;SDS011;39535;52.192;9.886;2023-05-23T01:07:18;24.67;;;22.47;;
13951;SDS011;39535;52.192;9.886;2023-05-23T01:09:45;25.03;;;22.70;;
13951;SDS011;39535;52.192;9.886;2023-05-23T01:12:14;30.50;;;27.53;;
13951;SDS011;39535;52.192;9.886;2023-05-23T01:14:46;28.30;;;25.70;;
13951;SDS011;39535;52.192;9.886;2023-05-23T01:17:18;29.33;;;26.70;;
13951;SDS011;39535;52.192;9.886;2023-05-23T01:19:54;33.10;;;28.17;;
13951;SDS011;39535;52.192;9.886;2023-05-23T01:22:29;37.13;;;32.43;;
13951;SDS011;39535;52.192;9.886;2023-05-23T01:25:08;50.67;;;37.70;;
13951;SDS011;39535;52.192;9.886;2023-05-23T01:27:49;59.60;;;42.70;;
13951;SDS011;39535;52.192;9.886;2023-05-23T01:30:18;63.43;;;44.47;;
13951;SDS011;39535;52.192;9.886;2023-05-23T01:32:46;71.43;;;46.20;;
13951;SDS011;39535;52.192;9.886;2023-05-23T01:35:15;59.23;;;47.10;;
13951;SDS011;39535;52.192;9.886;2023-05-23T01:37:46;62.17;;;45.80;;
13951;SDS011;39535;52.192;9.886;2023-05-23T01:40:13;63.93;;;46.77;;
13951;SDS011;39535;52.192;9.886;2023-05-23T01:42:39;62.93;;;45.70;;
13951;SDS011;39535;52.192;9.886;2023-05-23T01:45:08;53.67;;;43.33;;
13951;SDS011;39535;52.192;9.886;2023-05-23T01:47:36;60.57;;;44.43;;
13951;SDS011;39535;52.192;9.886;2023-05-23T01:50:05;58.90;;;44.73;;
13951;SDS011;39535;52.192;9.886;2023-05-23T01:52:33;54.93;;;42.70;;
13951;SDS011;39535;52.192;9.886;2023-05-23T01:55:00;57.07;;;43.03;;
13951;SDS011;39535;52.192;9.886;2023-05-23T01:57:28;54.17;;;42.60;;
13951;SDS011;39535;52.192;9.886;2023-05-23T01:59:55;52.10;;;39.80;;
13951;SDS011;39535;52.192;9.886;2023-05-23T02:02:23;46.17;;;38.40;;
13951;SDS011;39535;52.192;9.886;2023-05-23T02:04:50;47.87;;;38.53;;
13951;SDS011;39535;52.192;9.886;2023-05-23T02:07:18;48.37;;;37.13;;
13951;SDS011;39535;52.192;9.886;2023-05-23T02:09:47;40.50;;;32.73;;
13951;SDS011;39535;52.192;9.886;2023-05-23T02:12:13;32.17;;;29.03;;
13951;SDS011;39535;52.192;9.886;2023-05-23T02:14:40;30.10;;;27.10;;
13951;SDS011;39535;52.192;9.886;2023-05-23T02:17:06;29.23;;;26.30;;
13951;SDS011;39535;52.192;9.886;2023-05-23T02:19:35;25.80;;;23.33;;
13951;SDS011;39535;52.192;9.886;2023-05-23T02:22:01;22.90;;;20.90;;
13951;SDS011;39535;52.192;9.886;2023-05-23T02:24:28;21.93;;;20.10;;
13951;SDS011;39535;52.192;9.886;2023-05-23T02:26:54;23.13;;;20.73;;
13951;SDS011;39535;52.192;9.886;2023-05-23T02:29:21;22.03;;;20.23;;
13951;SDS011;39535;52.192;9.886;2023-05-23T02:31:47;23.47;;;21.50;;
13951;SDS011;39535;52.192;9.886;2023-05-23T02:34:14;22.83;;;20.97;;
13951;SDS011;39535;52.192;9.886;2023-05-23T02:36:41;21.50;;;19.63;;
13951;SDS011;39535;52.192;9.886;2023-05-23T02:39:08;18.77;;;17.27;;
13951;SDS011;39535;52.192;9.886;2023-05-23T02:41:34;20.00;;;18.37;;
13951;SDS011;39535;52.192;9.886;2023-05-23T02:44:01;19.00;;;17.60;;
13951;SDS011;39535;52.192;9.886;2023-05-23T02:46:27;19.40;;;17.80;;
13951;SDS011;39535;52.192;9.886;2023-05-23T02:48:54;18.47;;;17.03;;
13951;SDS011;39535;52.192;9.886;2023-05-23T02:51:20;18.87;;;17.37;;
13951;SDS011;39535;52.192;9.886;2023-05-23T02:53:48;18.40;;;16.70;;
13951;SDS011;39535;52.192;9.886;2023-05-23T02:56:14;17.63;;;16.20;;
13951;SDS011;39535;52.192;9.886;2023-05-23T02:58:41;19.17;;;17.43;;
13951;SDS011;39535;52.192;9.886;2023-05-23T03:01:07;19.20;;;17.50;;
13951;SDS011;39535;52.192;9.886;2023-05-23T03:03:33;18.33;;;16.83;;
13951;SDS011;39535;52.192;9.886;2023-05-23T03:06:00;17.73;;;16.40;;
13951;SDS011;39535;52.192;9.886;2023-05-23T03:08:28;16.57;;;14.93;;
13951;SDS011;39535;52.192;9.886;2023-05-23T03:10:56;18.20;;;16.67;;
13951;SDS011;39535;52.192;9.886;2023-05-23T03:13:23;18.20;;;16.80;;
13951;SDS011;39535;52.192;9.886;2023-05-23T03:15:49;18.83;;;17.23;;
13951;SDS011;39535;52.192;9.886;2023-05-23T03:18:15;20.43;;;18.37;;
13951;SDS011;39535;52.192;9.886;2023-05-23T03:20:42;19.43;;;17.67;;
13951;SDS011;39535;52.192;9.886;2023-05-23T03:23:08;19.73;;;18.13;;
13951;SDS011;39535;52.192;9.886;2023-05-23T03:25:34;20.70;;;18.97;;
13951;SDS011;39535;52.192;9.886;2023-05-23T03:28:02;20.33;;;18.50;;
13951;SDS011;39535;52.192;9.886;2023-05-23T03:30:29;20.13;;;18.57;;
13951;SDS011;39535;52.192;9.886;2023-05-23T03:32:55;18.83;;;17.33;;
13951;SDS011;39535;52.192;9.886;2023-05-23T03:35:22;18.73;;;17.13;;
13951;SDS011;39535;52.192;9.886;2023-05-23T03:37:48;19.20;;;17.60;;
13951;SDS011;39535;52.192;9.886;2023-05-23T03:40:15;17.97;;;16.10;;
13951;SDS011;39535;52.192;9.886;2023-05-23T03:42:41;18.43;;;16.77;;
13951;SDS011;39535;52.192;9.886;2023-05-23T03:45:09;17.90;;;16.40;;
13951;SDS011;39535;52.192;9.886;2023-05-23T03:47:36;17.67;;;16.13;;
13951;SDS011;39535;52.192;9.886;2023-05-23T03:50:02;18.53;;;17.10;;
13951;SDS011;39535;52.192;9.886;2023-05-23T03:52:29;19.03;;;17.57;;
13951;SDS011;39535;52.192;9.886;2023-05-23T03:54:56;18.40;;;16.90;;
13951;SDS011;39535;52.192;9.886;2023-05-23T03:57:22;18.67;;;17.17;;
13951;SDS011;39535;52.192;9.886;2023-05-23T03:59:48;18.47;;;17.03;;
13951;SDS011;39535;52.192;9.886;2023-05-23T04:02:16;19.87;;;18.07;;
13951;SDS011;39535;52.192;9.886;2023-05-23T04:04:42;20.17;;;18.50;;
13951;SDS011;39535;52.192;9.886;2023-05-23T04:07:09;20.53;;;18.80;;
13951;SDS011;39535;52.192;9.886;2023-05-23T04:09:35;21.33;;;19.33;;
13951;SDS011;39535;52.192;9.886;2023-05-23T04:12:02;20.47;;;18.47;;
13951;SDS011;39535;52.192;9.886;2023-05-23T04:14:28;19.57;;;17.77;;
13951;SDS011;39535;52.192;9.886;2023-05-23T04:16:57;19.37;;;17.63;;
13951;SDS011;39535;52.192;9.886;2023-05-23T04:19:26;18.67;;;17.07;;
13951;SDS011;39535;52.192;9.886;2023-05-23T04:21:52;17.67;;;16.13;;
13951;SDS011;39535;52.192;9.886;2023-05-23T04:24:18;18.30;;;16.73;;
13951;SDS011;39535;52.192;9.886;2023-05-23T04:26:45;19.27;;;17.47;;
13951;SDS011;39535;52.192;9.886;2023-05-23T04:29:11;18.30;;;16.83;;
13951;SDS011;39535;52.192;9.886;2023-05-23T04:31:38;20.97;;;18.97;;
13951;SDS011;39535;52.192;9.886;2023-05-23T04:34:05;18.47;;;16.83;;
13951;SDS011;39535;52.192;9.886;2023-05-23T04:36:33;19.30;;;17.63;;
13951;SDS011;39535;52.192;9.886;2023-05-23T04:39:02;19.77;;;18.07;;
13951;SDS011;39535;52.192;9.886;2023-05-23T04:41:29;21.17;;;19.07;;
13951;SDS011;39535;52.192;9.886;2023-05-23T04:43:55;19.87;;;18.23;;
13951;SDS011;39535;52.192;9.886;2023-05-23T04:46:22;18.43;;;16.90;;
13951;SDS011;39535;52.192;9.886;2023-05-23T04:48:50;15.57;;;14.20;;
13951;SDS011;39535;52.192;9.886;2023-05-23T04:51:17;13.43;;;12.33;;
13951;SDS011;39535;52.192;9.886;2023-05-23T04:53:46;11.63;;;10.73;;
13951;SDS011;39535;52.192;9.886;2023-05-23T04:56:14;11.53;;;10.73;;
13951;SDS011;39535;52.192;9.886;2023-05-23T04:58:41;10.33;;;9.63;;
13951;SDS011;39535;52.192;9.886;2023-05-23T05:01:09;10.07;;;9.20;;
13951;SDS011;39535;52.192;9.886;2023-05-23T05:03:36;9.70;;;8.90;;
13951;SDS011;39535;52.192;9.886;2023-05-23T05:06:02;9.73;;;9.00;;
13951;SDS011;39535;52.192;9.886;2023-05-23T05:08:29;10.03;;;9.23;;
13951;SDS011;39535;52.192;9.886;2023-05-23T05:10:57;9.73;;;9.03;;
13951;SDS011;39535;52.192;9.886;2023-05-23T05:13:24;10.00;;;9.20;;
13951;SDS011;39535;52.192;9.886;2023-05-23T05:15:50;10.80;;;9.90;;
13951;SDS011;39535;52.192;9.886;2023-05-23T05:18:17;11.27;;;10.37;;
13951;SDS011;39535;52.192;9.886;2023-05-23T05:20:43;11.03;;;10.03;;
13951;SDS011;39535;52.192;9.886;2023-05-23T05:23:11;11.17;;;10.17;;
13951;SDS011;39535;52.192;9.886;2023-05-23T05:25:37;11.70;;;10.80;;
13951;SDS011;39535;52.192;9.886;2023-05-23T05:28:06;10.47;;;9.67;;
13951;SDS011;39535;52.192;9.886;2023-05-23T05:30:32;10.90;;;9.97;;
13951;SDS011;39535;52.192;9.886;2023-05-23T05:33:00;10.47;;;9.57;;
13951;SDS011;39535;52.192;9.886;2023-05-23T05:35:28;10.47;;;9.57;;
13951;SDS011;39535;52.192;9.886;2023-05-23T05:37:54;10.43;;;9.43;;
13951;SDS011;39535;52.192;9.886;2023-05-23T05:40:20;10.93;;;9.93;;
13951;SDS011;39535;52.192;9.886;2023-05-23T05:42:47;11.27;;;10.40;;
13951;SDS011;39535;52.192;9.886;2023-05-23T05:45:15;11.93;;;11.03;;
13951;SDS011;39535;52.192;9.886;2023-05-23T05:47:41;11.87;;;10.77;;
13951;SDS011;39535;52.192;9.886;2023-05-23T05:50:08;12.23;;;11.17;;
13951;SDS011;39535;52.192;9.886;2023-05-23T05:52:35;11.73;;;10.73;;
13951;SDS011;39535;52.192;9.886;2023-05-23T05:55:03;12.17;;;11.17;;
13951;SDS011;39535;52.192;9.886;2023-05-23T05:57:30;12.87;;;11.80;;
13951;SDS011;39535;52.192;9.886;2023-05-23T05:59:57;12.30;;;11.30;;
13951;SDS011;39535;52.192;9.886;2023-05-23T06:02:24;12.50;;;11.40;;
13951;SDS011;39535;52.192;9.886;2023-05-23T06:04:51;11.37;;;10.47;;
13951;SDS011;39535;52.192;9.886;2023-05-23T06:07:17;9.80;;;9.10;;
13951;SDS011;39535;52.192;9.886;2023-05-23T06:09:43;9.30;;;8.67;;
13951;SDS011;39535;52.192;9.886;2023-05-23T06:12:10;10.63;;;9.73;;
13951;SDS011;39535;52.192;9.886;2023-05-23T06:14:36;10.00;;;9.20;;
13951;SDS011;39535;52.192;9.886;2023-05-23T06:17:02;9.17;;;8.47;;
13951;SDS011;39535;52.192;9.886;2023-05-23T06:19:30;10.27;;;9.47;;
13951;SDS011;39535;52.192;9.886;2023-05-23T06:21:56;11.30;;;10.33;;
13951;SDS011;39535;52.192;9.886;2023-05-23T06:24:23;11.13;;;10.33;;
13951;SDS011;39535;52.192;9.886;2023-05-23T06:26:49;10.40;;;9.60;;
13951;SDS011;39535;52.192;9.886;2023-05-23T06:29:16;10.60;;;9.70;;
13951;SDS011;39535;52.192;9.886;2023-05-23T06:31:42;10.77;;;9.97;;
13951;SDS011;39535;52.192;9.886;2023-05-23T06:34:08;10.17;;;9.37;;
13951;SDS011;39535;52.192;9.886;2023-05-23T06:36:36;10.10;;;9.20;;
13951;SDS011;39535;52.192;9.886;2023-05-23T06:39:02;9.30;;;8.70;;
13951;SDS011;39535;52.192;9.886;2023-05-23T06:41:29;10.00;;;9.30;;
13951;SDS011;39535;52.192;9.886;2023-05-23T06:43:55;10.23;;;9.43;;
13951;SDS011;39535;52.192;9.886;2023-05-23T06:46:21;11.27;;;10.47;;
13951;SDS011;39535;52.192;9.886;2023-05-23T06:48:48;9.80;;;9.00;;
13951;SDS011;39535;52.192;9.886;2023-05-23T06:51:14;11.17;;;10.17;;
13951;SDS011;39535;52.192;9.886;2023-05-23T06:53:41;9.97;;;9.27;;
13951;SDS011;39535;52.192;9.886;2023-05-23T06:56:08;9.50;;;8.80;;
13951;SDS011;39535;52.192;9.886;2023-05-23T06:58:34;11.80;;;10.90;;
13951;SDS011;39535;52.192;9.886;2023-05-23T07:01:00;10.17;;;9.43;;
13951;SDS011;39535;52.192;9.886;2023-05-23T07:03:27;11.57;;;10.57;;
13951;SDS011;39535;52.192;9.886;2023-05-23T07:05:53;10.57;;;9.70;;
13951;SDS011;39535;52.192;9.886;2023-05-23T07:08:19;10.73;;;10.03;;
13951;SDS011;39535;52.192;9.886;2023-05-23T07:10:47;10.47;;;9.67;;
13951;SDS011;39535;52.192;9.886;2023-05-23T07:13:13;9.93;;;9.20;;
13951;SDS011;39535;52.192;9.886;2023-05-23T07:15:40;10.87;;;10.07;;
13951;SDS011;39535;52.192;9.886;2023-05-23T07:18:06;11.67;;;10.63;;
13951;SDS011;39535;52.192;9.886;2023-05-23T07:20:32;13.20;;;12.20;;
13951;SDS011;39535;52.192;9.886;2023-05-23T07:22:59;13.07;;;11.93;;
13951;SDS011;39535;52.192;9.886;2023-05-23T07:25:25;13.50;;;12.40;;
13951;SDS011;39535;52.192;9.886;2023-05-23T07:27:53;13.73;;;12.60;;
13951;SDS011;39535;52.192;9.886;2023-05-23T07:30:20;14.10;;;13.00;;
13951;SDS011;39535;52.192;9.886;2023-05-23T07:32:47;14.30;;;13.10;;
13951;SDS011;39535;52.192;9.886;2023-05-23T07:35:13;13.97;;;12.90;;
13951;SDS011;39535;52.192;9.886;2023-05-23T07:37:40;14.20;;;13.10;;
13951;SDS011;39535;52.192;9.886;2023-05-23T07:40:07;14.53;;;13.33;;
13951;SDS011;39535;52.192;9.886;2023-05-23T07:42:34;15.03;;;13.83;;
13951;SDS011;39535;52.192;9.886;2023-05-23T07:45:02;14.20;;;13.00;;
13951;SDS011;39535;52.192;9.886;2023-05-23T07:47:28;13.80;;;12.60;;
13951;SDS011;39535;52.192;9.886;2023-05-23T07:49:55;12.73;;;11.73;;
13951;SDS011;39535;52.192;9.886;2023-05-23T07:52:21;12.63;;;11.53;;
13951;SDS011;39535;52.192;9.886;2023-05-23T07:54:47;11.80;;;10.90;;
13951;SDS011;39535;52.192;9.886;2023-05-23T07:57:14;10.20;;;9.40;;
13951;SDS011;39535;52.192;9.886;2023-05-23T07:59:40;10.27;;;9.57;;
13951;SDS011;39535;52.192;9.886;2023-05-23T08:02:08;10.30;;;9.50;;
13951;SDS011;39535;52.192;9.886;2023-05-23T08:04:34;9.10;;;8.50;;
13951;SDS011;39535;52.192;9.886;2023-05-23T08:07:00;10.17;;;9.47;;
13951;SDS011;39535;52.192;9.886;2023-05-23T08:09:29;10.67;;;9.87;;
13951;SDS011;39535;52.192;9.886;2023-05-23T08:11:55;10.37;;;9.67;;
13951;SDS011;39535;52.192;9.886;2023-05-23T08:14:21;10.67;;;9.87;;
13951;SDS011;39535;52.192;9.886;2023-05-23T08:16:48;10.93;;;10.17;;
13951;SDS011;39535;52.192;9.886;2023-05-23T08:19:15;11.53;;;10.73;;
13951;SDS011;39535;52.192;9.886;2023-05-23T08:21:42;11.90;;;11.10;;
13951;SDS011;39535;52.192;9.886;2023-05-23T08:24:08;12.17;;;11.27;;
13951;SDS011;39535;52.192;9.886;2023-05-23T08:26:37;12.03;;;11.03;;
13951;SDS011;39535;52.192;9.886;2023-05-23T08:29:03;11.80;;;11.00;;
13951;SDS011;39535;52.192;9.886;2023-05-23T08:31:29;13.13;;;11.93;;
13951;SDS011;39535;52.192;9.886;2023-05-23T08:33:57;13.57;;;12.57;;
13951;SDS011;39535;52.192;9.886;2023-05-23T08:36:25;13.03;;;12.13;;
13951;SDS011;39535;52.192;9.886;2023-05-23T08:38:52;15.10;;;14.00;;
13951;SDS011;39535;52.192;9.886;2023-05-23T08:41:18;14.53;;;13.37;;
13951;SDS011;39535;52.192;9.886;2023-05-23T08:43:46;14.13;;;12.83;;
13951;SDS011;39535;52.192;9.886;2023-05-23T08:46:13;13.33;;;12.30;;
13951;SDS011;39535;52.192;9.886;2023-05-23T08:48:40;13.93;;;12.83;;
13951;SDS011;39535;52.192;9.886;2023-05-23T08:51:08;14.60;;;13.10;;
13951;SDS011;39535;52.192;9.886;2023-05-23T08:53:37;15.33;;;13.93;;
13951;SDS011;39535;52.192;9.886;2023-05-23T08:56:07;16.63;;;15.10;;
13951;SDS011;39535;52.192;9.886;2023-05-23T08:58:35;16.93;;;14.93;;
13951;SDS011;39535;52.192;9.886;2023-05-23T09:01:02;17.07;;;15.50;;
13951;SDS011;39535;52.192;9.886;2023-05-23T09:03:29;15.83;;;14.20;;
13951;SDS011;39535;52.192;9.886;2023-05-23T09:05:57;16.20;;;14.70;;
13951;SDS011;39535;52.192;9.886;2023-05-23T09:08:23;14.60;;;13.40;;
13951;SDS011;39535;52.192;9.886;2023-05-23T09:10:51;14.47;;;13.03;;
13951;SDS011;39535;52.192;9.886;2023-05-23T09:13:18;14.37;;;12.87;;
13951;SDS011;39535;52.192;9.886;2023-05-23T09:16:00;12.83;;;11.73;;
13951;SDS011;39535;52.192;9.886;2023-05-23T09:18:31;11.30;;;10.20;;
13951;SDS011;39535;52.192;9.886;2023-05-23T09:20:59;10.90;;;9.10;;
13951;SDS011;39535;52.192;9.886;2023-05-23T09:23:27;10.57;;;9.57;;
13951;SDS011;39535;52.192;9.886;2023-05-23T09:25:56;13.43;;;10.60;;
13951;SDS011;39535;52.192;9.886;2023-05-23T09:28:27;10.90;;;9.90;;
13951;SDS011;39535;52.192;9.886;2023-05-23T09:30:57;9.43;;;8.67;;
13951;SDS011;39535;52.192;9.886;2023-05-23T09:33:27;8.07;;;7.20;;
13951;SDS011;39535;52.192;9.886;2023-05-23T09:35:54;8.03;;;6.17;;
13951;SDS011;39535;52.192;9.886;2023-05-23T09:38:20;6.40;;;5.80;;
13951;SDS011;39535;52.192;9.886;2023-05-23T09:40:47;8.13;;;7.33;;
13951;SDS011;39535;52.192;9.886;2023-05-23T09:43:14;7.50;;;6.80;;
13951;SDS011;39535;52.192;9.886;2023-05-23T09:45:42;7.93;;;6.90;;
13951;SDS011;39535;52.192;9.886;2023-05-23T09:48:10;8.37;;;7.03;;
13951;SDS011;39535;52.192;9.886;2023-05-23T09:50:37;11.07;;;7.03;;
13951;SDS011;39535;52.192;9.886;2023-05-23T09:53:04;7.70;;;6.10;;
13951;SDS011;39535;52.192;9.886;2023-05-23T09:55:30;5.90;;;5.30;;
13951;SDS011;39535;52.192;9.886;2023-05-23T09:57:57;8.00;;;6.10;;
13951;SDS011;39535;52.192;9.886;2023-05-23T10:00:26;6.33;;;5.73;;
13951;SDS011;39535;52.192;9.886;2023-05-23T10:02:54;7.73;;;6.07;;
13951;SDS011;39535;52.192;9.886;2023-05-23T10:05:30;6.87;;;6.27;;
13951;SDS011;39535;52.192;9.886;2023-05-23T10:07:59;6.77;;;6.23;;
13951;SDS011;39535;52.192;9.886;2023-05-23T10:10:28;6.00;;;5.23;;
13951;SDS011;39535;52.192;9.886;2023-05-23T10:12:57;5.90;;;5.40;;
13951;SDS011;39535;52.192;9.886;2023-05-23T10:15:28;8.03;;;5.97;;
13951;SDS011;39535;52.192;9.886;2023-05-23T10:18:01;5.43;;;4.93;;
13951;SDS011;39535;52.192;9.886;2023-05-23T10:20:32;6.00;;;5.50;;
13951;SDS011;39535;52.192;9.886;2023-05-23T10:23:01;4.80;;;4.43;;
13951;SDS011;39535;52.192;9.886;2023-05-23T10:25:29;4.83;;;4.43;;
13951;SDS011;39535;52.192;9.886;2023-05-23T10:27:56;5.17;;;4.77;;
13951;SDS011;39535;52.192;9.886;2023-05-23T10:30:24;4.33;;;3.93;;
13951;SDS011;39535;52.192;9.886;2023-05-23T10:32:52;4.20;;;3.80;;
13951;SDS011;39535;52.192;9.886;2023-05-23T10:35:21;4.27;;;3.87;;
13951;SDS011;39535;52.192;9.886;2023-05-23T10:37:55;4.97;;;3.90;;
13951;SDS011;39535;52.192;9.886;2023-05-23T10:40:27;4.73;;;4.33;;
13951;SDS011;39535;52.192;9.886;2023-05-23T10:43:00;6.57;;;4.83;;
13951;SDS011;39535;52.192;9.886;2023-05-23T10:45:33;9.40;;;6.77;;
13951;SDS011;39535;52.192;9.886;2023-05-23T10:48:17;7.80;;;6.33;;
13951;SDS011;39535;52.192;9.886;2023-05-23T10:50:49;10.37;;;7.63;;
13951;SDS011;39535;52.192;9.886;2023-05-23T10:53:29;13.37;;;8.73;;
13951;SDS011;39535;52.192;9.886;2023-05-23T10:55:56;11.30;;;8.40;;
13951;SDS011;39535;52.192;9.886;2023-05-23T10:58:22;9.70;;;7.70;;
13951;SDS011;39535;52.192;9.886;2023-05-23T11:00:52;10.93;;;8.43;;
13951;SDS011;39535;52.192;9.886;2023-05-23T11:03:30;12.00;;;8.00;;
13951;SDS011;39535;52.192;9.886;2023-05-23T11:05:59;8.73;;;6.80;;
13951;SDS011;39535;52.192;9.886;2023-05-23T11:08:26;8.33;;;7.07;;
13951;SDS011;39535;52.192;9.886;2023-05-23T11:10:54;7.80;;;7.00;;
13951;SDS011;39535;52.192;9.886;2023-05-23T11:13:23;7.30;;;6.60;;
13951;SDS011;39535;52.192;9.886;2023-05-23T11:15:50;9.33;;;6.70;;
13951;SDS011;39535;52.192;9.886;2023-05-23T11:18:20;10.93;;;7.63;;
13951;SDS011;39535;52.192;9.886;2023-05-23T11:20:50;8.37;;;7.57;;
13951;SDS011;39535;52.192;9.886;2023-05-23T11:23:17;12.40;;;7.90;;
13951;SDS011;39535;52.192;9.886;2023-05-23T11:25:44;13.13;;;7.90;;
13951;SDS011;39535;52.192;9.886;2023-05-23T11:28:14;11.83;;;7.30;;
13951;SDS011;39535;52.192;9.886;2023-05-23T11:30:41;9.57;;;7.77;;
13951;SDS011;39535;52.192;9.886;2023-05-23T11:33:08;9.60;;;7.17;;
13951;SDS011;39535;52.192;9.886;2023-05-23T11:35:37;12.10;;;7.63;;
13951;SDS011;39535;52.192;9.886;2023-05-23T11:38:07;8.70;;;6.57;;
13951;SDS011;39535;52.192;9.886;2023-05-23T11:40:34;9.90;;;6.80;;
13951;SDS011;39535;52.192;9.886;2023-05-23T11:43:02;13.27;;;7.33;;
13951;SDS011;39535;52.192;9.886;2023-05-23T11:45:30;10.23;;;7.03;;
13951;SDS011;39535;52.192;9.886;2023-05-23T11:47:57;10.57;;;8.50;;
13951;SDS011;39535;52.192;9.886;2023-05-23T11:50:23;13.93;;;8.33;;
13951;SDS011;39535;52.192;9.886;2023-05-23T11:52:49;10.57;;;8.07;;
13951;SDS011;39535;52.192;9.886;2023-05-23T11:55:17;11.20;;;9.33;;
13951;SDS011;39535;52.192;9.886;2023-05-23T11:57:44;22.13;;;10.40;;
13951;SDS011;39535;52.192;9.886;2023-05-23T12:00:11;14.07;;;9.60;;
13951;SDS011;39535;52.192;9.886;2023-05-23T12:02:39;12.40;;;8.60;;
13951;SDS011;39535;52.192;9.886;2023-05-23T12:05:06;9.27;;;8.33;;
13951;SDS011;39535;52.192;9.886;2023-05-23T12:07:33;9.43;;;8.20;;
13951;SDS011;39535;52.192;9.886;2023-05-23T12:10:01;9.80;;;7.47;;
13951;SDS011;39535;52.192;9.886;2023-05-23T12:12:29;13.93;;;8.00;;
13951;SDS011;39535;52.192;9.886;2023-05-23T12:14:56;13.90;;;8.03;;
13951;SDS011;39535;52.192;9.886;2023-05-23T12:17:23;12.37;;;7.37;;
13951;SDS011;39535;52.192;9.886;2023-05-23T12:19:51;17.50;;;9.20;;
13951;SDS011;39535;52.192;9.886;2023-05-23T12:22:21;15.60;;;7.60;;
13951;SDS011;39535;52.192;9.886;2023-05-23T12:24:48;12.07;;;9.13;;
13951;SDS011;39535;52.192;9.886;2023-05-23T12:27:17;16.33;;;7.57;;
13951;SDS011;39535;52.192;9.886;2023-05-23T12:29:50;16.53;;;8.47;;
13951;SDS011;39535;52.192;9.886;2023-05-23T12:32:16;12.70;;;7.80;;
13951;SDS011;39535;52.192;9.886;2023-05-23T12:34:43;10.30;;;8.53;;
13951;SDS011;39535;52.192;9.886;2023-05-23T12:37:11;10.77;;;8.90;;
13951;SDS011;39535;52.192;9.886;2023-05-23T12:39:38;16.67;;;8.47;;
13951;SDS011;39535;52.192;9.886;2023-05-23T12:42:08;10.50;;;6.01;;
13951;SDS011;39535;52.192;9.886;2023-05-23T12:44:35;9.70;;;6.87;;
13951;SDS011;39535;52.192;9.886;2023-05-23T12:47:03;11.17;;;6.90;;
13951;SDS011;39535;52.192;9.886;2023-05-23T12:49:29;12.20;;;5.70;;
13951;SDS011;39535;52.192;9.886;2023-05-23T12:51:56;10.83;;;5.93;;
13951;SDS011;39535;52.192;9.886;2023-05-23T12:54:22;8.63;;;5.87;;
13951;SDS011;39535;52.192;9.886;2023-05-23T12:56:48;16.97;;;6.80;;
13951;SDS011;39535;52.192;9.886;2023-05-23T12:59:15;10.63;;;5.57;;
13951;SDS011;39535;52.192;9.886;2023-05-23T13:01:41;8.33;;;5.40;;
13951;SDS011;39535;52.192;9.886;2023-05-23T13:04:09;10.17;;;6.80;;
13951;SDS011;39535;52.192;9.886;2023-05-23T13:06:35;11.60;;;6.30;;
13951;SDS011;39535;52.192;9.886;2023-05-23T13:09:01;9.57;;;6.30;;
13951;SDS011;39535;52.192;9.886;2023-05-23T13:11:28;8.40;;;6.87;;
13951;SDS011;39535;52.192;9.886;2023-05-23T13:13:55;8.30;;;6.43;;
13951;SDS011;39535;52.192;9.886;2023-05-23T13:16:21;8.87;;;6.60;;
13951;SDS011;39535;52.192;9.886;2023-05-23T13:18:48;11.30;;;6.23;;
13951;SDS011;39535;52.192;9.886;2023-05-23T13:21:16;13.13;;;6.47;;
13951;SDS011;39535;52.192;9.886;2023-05-23T13:23:42;9.63;;;6.43;;
13951;SDS011;39535;52.192;9.886;2023-05-23T13:26:08;8.60;;;5.33;;
13951;SDS011;39535;52.192;9.886;2023-05-23T13:28:35;12.53;;;5.37;;
13951;SDS011;39535;52.192;9.886;2023-05-23T13:34:12;8.23;;;5.17;;
13951;SDS011;39535;52.192;9.886;2023-05-23T13:36:40;7.70;;;4.70;;
13951;SDS011;39535;52.192;9.886;2023-05-23T13:39:06;8.10;;;5.57;;
13951;SDS011;39535;52.192;9.886;2023-05-23T13:41:32;8.73;;;5.37;;
13951;SDS011;39535;52.192;9.886;2023-05-23T13:43:59;10.40;;;5.20;;
13951;SDS011;39535;52.192;9.886;2023-05-23T13:46:25;14.23;;;5.27;;
13951;SDS011;39535;52.192;9.886;2023-05-23T13:48:51;10.13;;;5.47;;
13951;SDS011;39535;52.192;9.886;2023-05-23T13:51:18;12.40;;;4.77;;
13951;SDS011;39535;52.192;9.886;2023-05-23T13:53:45;7.33;;;4.80;;
13951;SDS011;39535;52.192;9.886;2023-05-23T13:56:12;7.27;;;5.23;;
13951;SDS011;39535;52.192;9.886;2023-05-23T13:58:39;13.67;;;4.57;;
13951;SDS011;39535;52.192;9.886;2023-05-23T14:01:06;6.57;;;3.70;;
13951;SDS011;39535;52.192;9.886;2023-05-23T14:03:33;6.90;;;4.40;;
13951;SDS011;39535;52.192;9.886;2023-05-23T14:06:00;10.13;;;5.07;;
13951;SDS011;39535;52.192;9.886;2023-05-23T14:08:28;14.90;;;6.00;;
13951;SDS011;39535;52.192;9.886;2023-05-23T14:10:56;12.40;;;7.20;;
13951;SDS011;39535;52.192;9.886;2023-05-23T14:13:22;7.93;;;6.73;;
13951;SDS011;39535;52.192;9.886;2023-05-23T14:15:49;13.27;;;7.70;;
13951;SDS011;39535;52.192;9.886;2023-05-23T14:18:15;9.87;;;6.50;;
13951;SDS011;39535;52.192;9.886;2023-05-23T14:20:42;9.60;;;6.20;;
13951;SDS011;39535;52.192;9.886;2023-05-23T14:23:08;7.40;;;5.40;;
13951;SDS011;39535;52.192;9.886;2023-05-23T14:25:34;6.83;;;5.60;;
13951;SDS011;39535;52.192;9.886;2023-05-23T14:28:02;8.40;;;5.87;;
13951;SDS011;39535;52.192;9.886;2023-05-23T14:30:28;8.17;;;5.10;;
13951;SDS011;39535;52.192;9.886;2023-05-23T14:32:55;8.83;;;5.43;;
13951;SDS011;39535;52.192;9.886;2023-05-23T14:35:21;10.43;;;5.70;;